createdAt,value
2017-01-08T00:00:14.870Z,0.51
2017-01-08T00:02:04.186Z,0.53
2017-01-08T00:02:46.039Z,0.5
2017-01-08T00:03:27.767Z,0.5
2017-01-08T00:04:09.498Z,0.47
2017-01-08T00:04:51.369Z,0.53
2017-01-08T00:06:51.094Z,0.53
2017-01-08T00:07:32.823Z,0.49
2017-01-08T00:08:14.653Z,0.47
2017-01-08T00:08:56.079Z,0.6
2017-01-08T00:09:37.974Z,0.55
2017-01-08T00:10:19.227Z,0.49
2017-01-08T00:11:01.071Z,0.53
2017-01-08T00:12:55.821Z,0.5
2017-01-08T00:13:37.512Z,0.55
2017-01-08T00:14:19.259Z,0.65
2017-01-08T00:15:01.111Z,0.57
2017-01-08T00:15:42.891Z,0.55
2017-01-08T00:16:24.711Z,0.51
2017-01-08T00:18:24.687Z,0.6
2017-01-08T00:19:05.864Z,0.51
2017-01-08T00:19:47.375Z,0.51
2017-01-08T00:20:28.805Z,0.47
2017-01-08T00:21:10.453Z,0.51
2017-01-08T00:21:52.252Z,0.51
2017-01-08T00:22:34.104Z,0.5
2017-01-08T00:24:23.374Z,0.53
2017-01-08T00:25:04.931Z,0.53
2017-01-08T00:25:46.724Z,0.47
2017-01-08T00:28:02.095Z,0.55
2017-01-08T00:28:43.695Z,0.49
2017-01-08T00:29:25.469Z,0.49
2017-01-08T00:30:07.298Z,0.49
2017-01-08T00:30:49.150Z,0.58
2017-01-08T00:31:30.807Z,0.51
2017-01-08T00:33:30.972Z,0.51
2017-01-08T00:34:12.764Z,0.51
2017-01-08T00:35:51.762Z,0.65
2017-01-08T00:36:33.572Z,0.47
2017-01-08T00:37:15.245Z,0.55
2017-01-08T00:39:15.015Z,0.47
2017-01-08T00:39:56.441Z,0.51
2017-01-08T00:40:38.237Z,0.53
2017-01-08T00:41:19.865Z,0.51
2017-01-08T00:42:01.587Z,0.55
2017-01-08T00:44:16.962Z,0.61
2017-01-08T00:46:11.644Z,0.55
2017-01-08T00:46:53.132Z,0.58
2017-01-08T00:47:34.862Z,0.55
2017-01-08T00:48:16.394Z,0.62
2017-01-08T00:48:57.916Z,0.62
2017-01-08T00:49:39.105Z,0.65
2017-01-08T00:50:20.796Z,0.61
2017-01-08T00:51:02.183Z,0.58
2017-01-08T00:51:43.898Z,0.61
2017-01-08T00:52:25.544Z,0.62
2017-01-08T00:53:07.378Z,0.62
2017-01-08T00:53:49.257Z,0.55
2017-01-08T00:54:31.044Z,0.66
2017-01-08T00:55:12.879Z,0.65
2017-01-08T00:55:54.759Z,0.66
2017-01-08T00:56:36.561Z,0.6
2017-01-08T00:57:18.410Z,0.6
2017-01-08T00:58:00.182Z,0.61
2017-01-08T00:59:39.148Z,0.62
2017-01-08T01:01:54.516Z,0.62
2017-01-08T01:02:36.026Z,0.65
2017-01-08T01:04:51.356Z,0.61
2017-01-08T01:05:33.088Z,0.68
2017-01-08T01:06:14.521Z,0.68
2017-01-08T01:06:56.212Z,0.65
2017-01-08T01:08:35.219Z,0.7
2017-01-08T01:10:29.865Z,0.61
2017-01-08T01:11:11.725Z,0.68
2017-01-08T01:11:53.453Z,0.62
2017-01-08T01:12:35.231Z,0.61
2017-01-08T01:14:50.739Z,0.68
2017-01-08T01:16:45.508Z,0.7
2017-01-08T01:18:34.880Z,0.66
2017-01-08T01:19:16.273Z,0.6
2017-01-08T01:20:55.341Z,0.58
2017-01-08T01:21:37.232Z,0.62
2017-01-08T01:22:18.808Z,0.61
2017-01-08T01:23:00.613Z,0.72
2017-01-08T01:25:00.587Z,0.66
2017-01-08T01:25:42.257Z,0.72
2017-01-08T01:26:24.086Z,0.68
2017-01-08T01:27:05.905Z,0.66
2017-01-08T01:27:47.525Z,0.72
2017-01-08T01:29:26.570Z,0.69
2017-01-08T01:31:15.928Z,0.72
2017-01-08T01:33:05.309Z,0.73
2017-01-08T01:33:47.060Z,0.73
2017-01-08T01:34:28.447Z,0.69
2017-01-08T01:35:10.311Z,0.7
2017-01-08T01:35:52.043Z,0.7
2017-01-08T01:36:33.779Z,0.58
2017-01-08T01:37:15.005Z,0.7
2017-01-08T01:37:56.439Z,0.68
2017-01-08T01:38:37.837Z,0.66
2017-01-08T01:39:19.207Z,0.69
2017-01-08T01:40:58.167Z,0.7
2017-01-08T01:41:39.991Z,0.69
2017-01-08T01:42:21.846Z,0.65
2017-01-08T01:43:03.620Z,0.61
2017-01-08T01:43:45.440Z,0.66
2017-01-08T01:45:34.892Z,0.68
2017-01-08T01:46:16.418Z,0.68
2017-01-08T01:46:58.127Z,0.66
2017-01-08T01:47:39.639Z,0.65
2017-01-08T01:49:29.010Z,0.65
2017-01-08T01:50:10.588Z,0.73
2017-01-08T01:50:52.370Z,0.65
2017-01-08T01:51:34.093Z,0.66
2017-01-08T01:53:23.463Z,0.66
2017-01-08T01:54:05.140Z,0.65
2017-01-08T01:54:46.669Z,0.68
2017-01-08T01:55:28.441Z,0.68
2017-01-08T01:56:10.247Z,0.68
2017-01-08T01:56:52.060Z,0.65
2017-01-08T01:57:33.338Z,0.69
2017-01-08T01:58:15.166Z,0.68
2017-01-08T01:58:57.104Z,0.66
2017-01-08T01:59:38.883Z,0.65
2017-01-08T02:00:20.707Z,0.65
2017-01-08T02:01:02.383Z,0.66
2017-01-08T02:01:43.853Z,0.69
2017-01-08T02:03:33.080Z,0.72
2017-01-08T02:05:22.277Z,0.7
2017-01-08T02:06:02.764Z,0.68
2017-01-08T02:06:43.278Z,0.69
2017-01-08T02:07:23.821Z,0.69
2017-01-08T02:08:04.345Z,0.69
2017-01-08T02:08:44.866Z,0.72
2017-01-08T02:09:25.386Z,0.7
2017-01-08T02:10:05.907Z,0.72
2017-01-08T02:10:46.436Z,0.73
2017-01-08T02:11:26.952Z,0.69
2017-01-08T02:12:07.482Z,0.76
2017-01-08T02:12:48.015Z,0.73
2017-01-08T02:13:28.553Z,0.69
2017-01-08T02:14:09.083Z,0.72
2017-01-08T02:14:49.602Z,0.69
2017-01-08T02:15:30.133Z,0.7
2017-01-08T02:16:10.668Z,0.69
2017-01-08T02:16:51.181Z,0.75
2017-01-08T02:17:31.696Z,0.72
2017-01-08T02:18:12.226Z,0.73
2017-01-08T02:18:52.759Z,0.75
2017-01-08T02:19:33.285Z,0.84
2017-01-08T02:20:13.802Z,0.79
2017-01-08T02:20:54.327Z,0.72
2017-01-08T02:21:34.859Z,0.83
2017-01-08T02:22:15.379Z,0.79
2017-01-08T02:22:55.902Z,0.79
2017-01-08T02:23:36.432Z,0.78
2017-01-08T02:24:16.956Z,0.69
2017-01-08T02:24:57.476Z,0.78
2017-01-08T02:25:38.009Z,0.78
2017-01-08T02:26:18.542Z,0.69
2017-01-08T02:26:59.062Z,0.83
2017-01-08T02:27:39.589Z,0.8
2017-01-08T02:28:20.111Z,0.84
2017-01-08T02:29:00.643Z,0.86
2017-01-08T02:29:41.178Z,0.76
2017-01-08T02:30:21.714Z,0.76
2017-01-08T02:31:02.243Z,0.8
2017-01-08T02:31:42.768Z,0.76
2017-01-08T02:32:23.286Z,0.78
2017-01-08T02:33:03.819Z,0.76
2017-01-08T02:33:44.338Z,0.86
2017-01-08T02:34:24.864Z,0.8
2017-01-08T02:35:05.395Z,0.79
2017-01-08T02:35:45.930Z,0.75
2017-01-08T02:36:26.463Z,0.72
2017-01-08T02:37:06.970Z,0.79
2017-01-08T02:37:47.506Z,0.78
2017-01-08T02:38:28.036Z,0.75
2017-01-08T02:39:08.564Z,0.78
2017-01-08T02:39:49.084Z,0.8
2017-01-08T02:40:29.605Z,0.78
2017-01-08T02:41:10.142Z,0.79
2017-01-08T02:41:50.672Z,0.78
2017-01-08T02:42:31.195Z,0.8
2017-01-08T02:43:11.720Z,0.86
2017-01-08T02:43:52.247Z,0.8
2017-01-08T02:44:32.785Z,0.8
2017-01-08T02:45:13.315Z,0.8
2017-01-08T02:45:53.837Z,0.83
2017-01-08T02:46:34.358Z,0.76
2017-01-08T02:47:14.888Z,0.79
2017-01-08T02:47:55.406Z,0.86
2017-01-08T02:48:35.930Z,0.83
2017-01-08T02:49:16.465Z,0.8
2017-01-08T02:49:56.990Z,0.8
2017-01-08T02:50:37.525Z,0.83
2017-01-08T02:51:18.054Z,0.79
2017-01-08T02:51:58.582Z,0.78
2017-01-08T02:52:39.130Z,0.83
2017-01-08T02:53:19.640Z,0.84
2017-01-08T02:54:00.170Z,0.79
2017-01-08T02:54:40.700Z,0.78
2017-01-08T02:55:21.199Z,0.78
2017-01-08T02:56:01.745Z,0.86
2017-01-08T02:56:42.242Z,0.78
2017-01-08T02:57:22.779Z,0.73
2017-01-08T02:58:03.267Z,0.84
2017-01-08T02:58:43.756Z,0.86
2017-01-08T02:59:24.236Z,0.86
2017-01-08T03:00:04.751Z,0.8
2017-01-08T03:00:45.251Z,0.83
2017-01-08T03:01:25.804Z,0.8
2017-01-08T03:02:06.326Z,0.75
2017-01-08T03:02:46.866Z,0.86
2017-01-08T03:03:27.414Z,0.76
2017-01-08T03:04:07.945Z,0.78
2017-01-08T03:04:48.477Z,0.84
2017-01-08T03:05:28.991Z,0.86
2017-01-08T03:06:09.527Z,0.9
2017-01-08T03:06:50.063Z,0.79
2017-01-08T03:07:30.578Z,0.8
2017-01-08T03:08:11.078Z,0.84
2017-01-08T03:08:51.558Z,0.8
2017-01-08T03:09:32.060Z,0.88
2017-01-08T03:10:12.539Z,0.78
2017-01-08T03:10:53.051Z,0.76
2017-01-08T03:11:33.561Z,0.78
2017-01-08T03:12:14.066Z,0.8
2017-01-08T03:12:54.575Z,0.84
2017-01-08T03:13:35.099Z,0.76
2017-01-08T03:14:15.638Z,0.88
2017-01-08T03:14:56.132Z,0.83
2017-01-08T03:15:36.624Z,0.83
2017-01-08T03:16:17.084Z,0.84
2017-01-08T03:16:57.608Z,0.88
2017-01-08T03:17:38.139Z,0.8
2017-01-08T03:18:18.638Z,0.9
2017-01-08T03:18:59.133Z,0.8
2017-01-08T03:19:39.646Z,0.78
2017-01-08T03:20:20.126Z,0.78
2017-01-08T03:21:00.627Z,0.8
2017-01-08T03:21:41.117Z,0.78
2017-01-08T03:22:21.554Z,0.83
2017-01-08T03:23:02.039Z,0.79
2017-01-08T03:23:42.530Z,0.8
2017-01-08T03:24:23.001Z,0.83
2017-01-08T03:25:03.479Z,0.9
2017-01-08T03:25:44.000Z,0.8
2017-01-08T03:26:24.483Z,0.84
2017-01-08T03:27:04.951Z,0.8
2017-01-08T03:27:45.478Z,0.83
2017-01-08T03:28:25.972Z,0.88
2017-01-08T03:29:06.457Z,0.83
2017-01-08T03:29:46.984Z,0.78
2017-01-08T03:30:27.498Z,0.86
2017-01-08T03:31:08.025Z,0.87
2017-01-08T03:31:48.672Z,0.84
2017-01-08T03:32:29.177Z,0.86
2017-01-08T03:33:09.651Z,0.9
2017-01-08T03:33:50.139Z,0.87
2017-01-08T03:34:30.644Z,0.86
2017-01-08T03:35:11.133Z,0.87
2017-01-08T03:35:51.638Z,0.88
2017-01-08T03:36:32.106Z,0.88
2017-01-08T03:37:12.585Z,0.78
2017-01-08T03:37:53.060Z,0.88
2017-01-08T03:38:33.539Z,0.9
2017-01-08T03:39:14.025Z,0.88
2017-01-08T03:39:54.551Z,0.9
2017-01-08T03:40:34.995Z,0.79
2017-01-08T03:41:15.481Z,0.9
2017-01-08T03:41:55.971Z,0.8
2017-01-08T03:42:36.456Z,0.91
2017-01-08T03:43:16.949Z,0.86
2017-01-08T03:43:57.437Z,0.87
2017-01-08T03:44:37.924Z,0.88
2017-01-08T03:45:18.434Z,0.88
2017-01-08T03:45:58.953Z,0.83
2017-01-08T03:46:39.407Z,0.93
2017-01-08T03:47:19.888Z,0.84
2017-01-08T03:48:00.365Z,0.88
2017-01-08T03:48:40.860Z,0.87
2017-01-08T03:49:21.352Z,0.88
2017-01-08T03:50:01.799Z,0.86
2017-01-08T03:50:42.328Z,0.8
2017-01-08T03:51:22.787Z,0.86
2017-01-08T03:52:03.296Z,0.94
2017-01-08T03:52:43.816Z,0.93
2017-01-08T03:53:24.349Z,0.94
2017-01-08T03:54:04.886Z,0.91
2017-01-08T03:54:45.444Z,0.93
2017-01-08T03:55:25.982Z,0.94
2017-01-08T03:56:06.498Z,0.9
2017-01-08T03:56:47.058Z,0.91
2017-01-08T03:57:27.563Z,0.91
2017-01-08T03:58:08.064Z,0.96
2017-01-08T03:58:48.544Z,0.9
2017-01-08T03:59:29.045Z,0.94
2017-01-08T04:00:09.534Z,0.98
2017-01-08T04:00:50.060Z,0.96
2017-01-08T04:01:30.585Z,0.91
2017-01-08T04:02:11.093Z,0.9
2017-01-08T04:02:51.569Z,0.91
2017-01-08T04:03:32.106Z,0.97
2017-01-08T04:04:12.628Z,0.93
2017-01-08T04:04:53.180Z,0.94
2017-01-08T04:05:33.630Z,0.93
2017-01-08T04:06:14.121Z,0.93
2017-01-08T04:06:54.601Z,0.93
2017-01-08T04:07:35.121Z,1
2017-01-08T04:08:15.644Z,0.93
2017-01-08T04:08:56.199Z,1.02
2017-01-08T04:09:36.718Z,0.91
2017-01-08T04:10:17.190Z,0.97
2017-01-08T04:10:57.707Z,0.93
2017-01-08T04:11:38.240Z,0.96
2017-01-08T04:12:18.772Z,0.94
2017-01-08T04:12:59.303Z,0.93
2017-01-08T04:13:39.826Z,0.97
2017-01-08T04:14:20.366Z,0.93
2017-01-08T04:15:00.907Z,0.94
2017-01-08T04:15:41.423Z,0.97
2017-01-08T04:16:21.967Z,0.94
2017-01-08T04:17:02.495Z,0.94
2017-01-08T04:17:43.028Z,0.91
2017-01-08T04:18:23.493Z,0.91
2017-01-08T04:19:04.018Z,0.98
2017-01-08T04:19:44.509Z,0.91
2017-01-08T04:20:25.032Z,0.96
2017-01-08T04:21:05.531Z,0.97
2017-01-08T04:21:46.043Z,0.94
2017-01-08T04:22:26.552Z,1.02
2017-01-08T04:23:07.059Z,0.94
2017-01-08T04:23:47.609Z,0.94
2017-01-08T04:24:28.121Z,0.97
2017-01-08T04:25:08.633Z,0.94
2017-01-08T04:25:49.132Z,0.94
2017-01-08T04:26:29.632Z,0.91
2017-01-08T04:27:10.148Z,0.91
2017-01-08T04:27:50.668Z,0.97
2017-01-08T04:28:31.164Z,1.04
2017-01-08T04:29:11.676Z,0.97
2017-01-08T04:29:52.191Z,0.91
2017-01-08T04:30:32.709Z,0.96
2017-01-08T04:31:13.237Z,0.96
2017-01-08T04:31:53.736Z,0.97
2017-01-08T04:32:34.271Z,0.94
2017-01-08T04:33:14.810Z,1.04
2017-01-08T04:33:55.347Z,0.94
2017-01-08T04:34:35.841Z,0.96
2017-01-08T04:35:16.338Z,0.94
2017-01-08T04:35:56.848Z,0.97
2017-01-08T04:36:37.372Z,0.96
2017-01-08T04:37:17.903Z,0.93
2017-01-08T04:37:58.411Z,0.97
2017-01-08T04:38:38.933Z,0.96
2017-01-08T04:39:19.460Z,0.97
2017-01-08T04:39:59.990Z,0.96
2017-01-08T04:40:40.523Z,0.98
2017-01-08T04:41:21.050Z,0.98
2017-01-08T04:42:01.579Z,1.04
2017-01-08T04:42:42.119Z,1.08
2017-01-08T04:43:22.640Z,0.97
2017-01-08T04:44:03.162Z,0.98
2017-01-08T04:44:43.712Z,1.05
2017-01-08T04:45:24.227Z,1.06
2017-01-08T04:46:04.773Z,0.98
2017-01-08T04:46:45.329Z,0.93
2017-01-08T04:47:25.855Z,1.04
2017-01-08T04:48:06.384Z,0.97
2017-01-08T04:48:46.948Z,1
2017-01-08T04:49:27.494Z,1.08
2017-01-08T04:50:08.010Z,1.04
2017-01-08T04:50:48.531Z,0.97
2017-01-08T04:51:29.056Z,1.08
2017-01-08T04:52:09.566Z,1.08
2017-01-08T04:52:50.117Z,1.06
2017-01-08T04:53:30.613Z,1.04
2017-01-08T04:54:11.129Z,1.06
2017-01-08T04:54:51.653Z,0.96
2017-01-08T04:55:32.163Z,1.05
2017-01-08T04:56:12.689Z,1.09
2017-01-08T04:56:53.209Z,1.02
2017-01-08T04:57:33.732Z,1.08
2017-01-08T04:58:14.279Z,1.06
2017-01-08T04:58:54.799Z,0.96
2017-01-08T04:59:35.359Z,1.02
2017-01-08T05:00:15.875Z,0.98
2017-01-08T05:00:56.396Z,1.06
2017-01-08T05:01:36.929Z,1.06
2017-01-08T05:02:17.479Z,1.11
2017-01-08T05:02:58.008Z,1.06
2017-01-08T05:03:38.604Z,0.96
2017-01-08T05:04:19.121Z,1.08
2017-01-08T05:04:59.655Z,0.94
2017-01-08T05:05:40.178Z,1.04
2017-01-08T05:06:20.719Z,1.12
2017-01-08T05:07:01.213Z,1.08
2017-01-08T05:07:41.716Z,0.96
2017-01-08T05:08:22.203Z,1.11
2017-01-08T05:09:02.727Z,0.94
2017-01-08T05:09:43.262Z,1.02
2017-01-08T05:10:23.749Z,1.05
2017-01-08T05:11:04.263Z,0.98
2017-01-08T05:11:44.787Z,1
2017-01-08T05:12:25.281Z,1.05
2017-01-08T05:13:05.755Z,1.05
2017-01-08T05:13:46.284Z,0.91
2017-01-08T05:14:26.745Z,1.04
2017-01-08T05:15:07.362Z,1.08
2017-01-08T05:15:47.786Z,1.02
2017-01-08T05:16:28.268Z,0.93
2017-01-08T05:17:08.780Z,1.05
2017-01-08T05:17:49.298Z,1.02
2017-01-08T05:18:29.823Z,1.02
2017-01-08T05:19:10.388Z,1.06
2017-01-08T05:19:50.862Z,1.09
2017-01-08T05:20:31.399Z,1.06
2017-01-08T05:21:11.953Z,1.02
2017-01-08T05:21:52.466Z,0.97
2017-01-08T05:22:33.040Z,1.05
2017-01-08T05:23:13.500Z,1.04
2017-01-08T05:23:54.065Z,1.04
2017-01-08T05:24:34.538Z,1.04
2017-01-08T05:25:15.086Z,0.97
2017-01-08T05:25:55.601Z,0.93
2017-01-08T05:26:36.134Z,1.02
2017-01-08T05:27:16.655Z,0.97
2017-01-08T05:27:57.244Z,0.97
2017-01-08T05:28:37.757Z,1.08
2017-01-08T05:29:18.255Z,1.11
2017-01-08T05:29:58.793Z,1.08
2017-01-08T05:30:39.285Z,1.11
2017-01-08T05:31:19.809Z,1.11
2017-01-08T05:32:00.370Z,1.05
2017-01-08T05:32:40.906Z,1
2017-01-08T05:33:21.396Z,1.02
2017-01-08T05:34:01.906Z,0.98
2017-01-08T05:34:42.496Z,1.12
2017-01-08T05:35:22.967Z,1.08
2017-01-08T05:36:03.646Z,1.06
2017-01-08T05:36:44.033Z,1.04
2017-01-08T05:37:24.666Z,0.98
2017-01-08T05:38:05.182Z,1.15
2017-01-08T05:38:45.779Z,1.09
2017-01-08T05:39:26.207Z,1.02
2017-01-08T05:40:06.780Z,1.02
2017-01-08T05:40:47.297Z,1.02
2017-01-08T05:41:27.917Z,1.05
2017-01-08T05:42:08.532Z,1.16
2017-01-08T05:42:49.038Z,1.11
2017-01-08T05:43:29.521Z,1.11
2017-01-08T05:44:10.094Z,1.15
2017-01-08T05:44:50.534Z,1.12
2017-01-08T05:45:31.052Z,1.16
2017-01-08T05:46:11.532Z,1.14
2017-01-08T05:46:52.039Z,1.14
2017-01-08T05:47:32.584Z,1.09
2017-01-08T05:48:13.137Z,1.09
2017-01-08T05:48:53.637Z,1.15
2017-01-08T05:49:34.144Z,1.11
2017-01-08T05:50:14.649Z,1.14
2017-01-08T05:50:55.161Z,1.08
2017-01-08T05:51:35.658Z,1.08
2017-01-08T05:52:16.175Z,1.06
2017-01-08T05:52:56.640Z,1.06
2017-01-08T05:53:37.136Z,1.12
2017-01-08T05:54:17.646Z,1.14
2017-01-08T05:54:58.156Z,1.16
2017-01-08T05:55:38.690Z,1.08
2017-01-08T05:56:19.218Z,1.12
2017-01-08T05:56:59.773Z,1.12
2017-01-08T05:57:40.277Z,1.11
2017-01-08T05:58:20.830Z,1.09
2017-01-08T05:59:01.371Z,1.08
2017-01-08T05:59:41.850Z,1.05
2017-01-08T06:00:22.339Z,1.06
2017-01-08T06:01:02.821Z,1.09
2017-01-08T06:01:43.385Z,1.14
2017-01-08T06:02:23.849Z,1.06
2017-01-08T06:03:04.371Z,1.14
2017-01-08T06:03:44.911Z,1.11
2017-01-08T06:04:25.403Z,1.09
2017-01-08T06:05:05.937Z,1.08
2017-01-08T06:05:46.430Z,1.08
2017-01-08T06:06:26.966Z,1.08
2017-01-08T06:07:07.496Z,1.12
2017-01-08T06:07:48.031Z,1.11
2017-01-08T06:08:28.549Z,1.06
2017-01-08T06:09:09.060Z,1.15
2017-01-08T06:09:49.575Z,1.15
2017-01-08T06:10:30.057Z,1.09
2017-01-08T06:11:10.585Z,1.15
2017-01-08T06:11:51.105Z,1.15
2017-01-08T06:12:31.642Z,1.18
2017-01-08T06:13:12.121Z,1.16
2017-01-08T06:13:52.615Z,1.18
2017-01-08T06:14:33.136Z,1.15
2017-01-08T06:15:13.665Z,1.15
2017-01-08T06:15:54.206Z,1.18
2017-01-08T06:16:34.680Z,1.16
2017-01-08T06:17:15.203Z,1.2
2017-01-08T06:17:55.729Z,1.16
2017-01-08T06:18:36.260Z,1.23
2017-01-08T06:19:16.795Z,1.16
2017-01-08T06:19:57.324Z,1.14
2017-01-08T06:20:37.866Z,1.12
2017-01-08T06:21:18.386Z,1.22
2017-01-08T06:21:58.939Z,1.18
2017-01-08T06:24:14.653Z,1.11
2017-01-08T06:24:55.122Z,1.12
2017-01-08T06:25:37.200Z,1.2
2017-01-08T06:26:17.747Z,1.2
2017-01-08T06:26:58.240Z,1.16
2017-01-08T06:27:40.623Z,1.23
2017-01-08T06:28:21.112Z,1.16
2017-01-08T06:29:01.690Z,1.22
2017-01-08T06:29:42.161Z,1.2
2017-01-08T06:30:22.652Z,1.18
2017-01-08T06:31:03.147Z,1.2
2017-01-08T06:31:43.634Z,1.22
2017-01-08T06:32:24.139Z,1.2
2017-01-08T06:33:04.645Z,1.14
2017-01-08T06:33:45.105Z,1.2
2017-01-08T06:34:25.657Z,1.15
2017-01-08T06:35:06.216Z,1.14
2017-01-08T06:35:46.739Z,1.18
2017-01-08T06:36:27.276Z,1.22
2017-01-08T06:37:07.789Z,1.24
2017-01-08T06:37:48.300Z,1.23
2017-01-08T06:38:29.288Z,1.18
2017-01-08T06:39:09.803Z,1.16
2017-01-08T06:39:51.246Z,1.16
2017-01-08T06:40:31.892Z,1.18
2017-01-08T06:41:12.416Z,1.22
2017-01-08T06:41:53.025Z,1.23
2017-01-08T06:42:33.706Z,1.18
2017-01-08T06:43:14.273Z,1.15
2017-01-08T06:43:56.807Z,1.24
2017-01-08T06:44:37.762Z,1.14
2017-01-08T06:45:19.544Z,1.12
2017-01-08T06:45:59.996Z,1.18
2017-01-08T06:46:40.626Z,1.14
2017-01-08T06:47:21.270Z,1.14
2017-01-08T06:48:02.825Z,1.2
2017-01-08T06:48:43.745Z,1.11
2017-01-08T06:49:24.411Z,1.18
2017-01-08T06:50:04.885Z,1.15
2017-01-08T06:50:45.401Z,1.27
2017-01-08T06:51:25.898Z,1.24
2017-01-08T06:52:06.437Z,1.14
2017-01-08T06:52:47.059Z,1.26
2017-01-08T06:53:27.754Z,1.16
2017-01-08T06:55:16.503Z,1.26
2017-01-08T06:55:57.717Z,1.15
2017-01-08T06:56:41.246Z,1.14
2017-01-08T06:57:21.739Z,1.16
2017-01-08T06:58:02.318Z,1.27
2017-01-08T06:58:48.965Z,1.3
2017-01-08T06:59:29.485Z,1.15
2017-01-08T07:00:11.587Z,1.27
2017-01-08T07:00:53.411Z,1.11
2017-01-08T07:01:37.479Z,1.16
2017-01-08T07:02:28.431Z,1.27
2017-01-08T07:03:09.674Z,1.26
2017-01-08T07:03:50.134Z,1.11
2017-01-08T07:04:30.640Z,1.24
2017-01-08T07:05:11.236Z,1.23
2017-01-08T07:05:51.699Z,1.16
2017-01-08T07:06:32.197Z,1.24
2017-01-08T07:07:12.708Z,1.24
2017-01-08T07:07:54.237Z,1.18
2017-01-08T07:08:34.690Z,1.26
2017-01-08T07:09:15.157Z,1.24
2017-01-08T07:09:55.653Z,1.15
2017-01-08T07:10:36.161Z,1.16
2017-01-08T07:11:16.703Z,1.2
2017-01-08T07:11:57.250Z,1.12
2017-01-08T07:12:37.799Z,1.29
2017-01-08T07:13:18.340Z,1.18
2017-01-08T07:13:58.858Z,1.11
2017-01-08T07:14:39.408Z,1.27
2017-01-08T07:15:20.028Z,1.3
2017-01-08T07:16:00.524Z,1.16
2017-01-08T07:16:41.041Z,1.15
2017-01-08T07:17:21.626Z,1.29
2017-01-08T07:18:02.192Z,1.29
2017-01-08T07:18:42.804Z,1.23
2017-01-08T07:19:23.527Z,1.14
2017-01-08T07:20:05.428Z,1.24
2017-01-08T07:20:45.820Z,1.16
2017-01-08T07:22:33.451Z,1.22
2017-01-08T07:23:13.971Z,1.2
2017-01-08T07:23:54.491Z,1.2
2017-01-08T07:24:35.031Z,1.26
2017-01-08T07:25:15.579Z,1.22
2017-01-08T07:25:56.100Z,1.23
2017-01-08T07:26:36.814Z,1.23
2017-01-08T07:27:17.458Z,1.24
2017-01-08T07:27:57.984Z,1.27
2017-01-08T07:28:38.512Z,1.22
2017-01-08T07:29:19.048Z,1.22
2017-01-08T07:29:59.885Z,1.22
2017-01-08T07:30:40.366Z,1.18
2017-01-08T07:31:20.838Z,1.2
2017-01-08T07:32:01.263Z,1.2
2017-01-08T07:32:41.836Z,1.22
2017-01-08T07:33:22.395Z,1.2
2017-01-08T07:34:02.887Z,1.22
2017-01-08T07:34:43.395Z,1.2
2017-01-08T07:35:23.926Z,1.23
2017-01-08T07:36:04.485Z,1.3
2017-01-08T07:36:44.993Z,1.27
2017-01-08T07:37:25.664Z,1.3
2017-01-08T07:38:06.076Z,1.27
2017-01-08T07:38:46.655Z,1.27
2017-01-08T07:39:27.170Z,1.24
2017-01-08T07:40:07.695Z,1.22
2017-01-08T07:40:48.243Z,1.2
2017-01-08T07:41:28.985Z,1.23
2017-01-08T07:42:09.590Z,1.22
2017-01-08T07:42:50.043Z,1.32
2017-01-08T07:43:30.714Z,1.3
2017-01-08T07:44:11.212Z,1.3
2017-01-08T07:44:51.797Z,1.27
2017-01-08T07:45:32.295Z,1.26
2017-01-08T07:46:13.129Z,1.3
2017-01-08T07:46:54.105Z,1.24
2017-01-08T07:47:35.806Z,1.3
2017-01-08T07:48:16.744Z,1.33
2017-01-08T07:49:03.933Z,1.32
2017-01-08T07:49:44.794Z,1.23
2017-01-08T07:50:25.354Z,1.29
2017-01-08T07:51:06.098Z,1.3
2017-01-08T07:51:47.396Z,1.24
2017-01-08T07:52:28.041Z,1.3
2017-01-08T07:53:08.535Z,1.29
2017-01-08T07:53:49.072Z,1.29
2017-01-08T07:54:30.271Z,1.24
2017-01-08T07:55:10.999Z,1.29
2017-01-08T07:55:51.520Z,1.3
2017-01-08T07:56:32.193Z,1.29
2017-01-08T07:57:13.511Z,1.34
2017-01-08T07:57:54.242Z,1.34
2017-01-08T07:58:35.128Z,1.34
2017-01-08T07:59:16.059Z,1.4
2017-01-08T07:59:56.823Z,1.34
2017-01-08T08:00:37.366Z,1.34
2017-01-08T08:01:18.101Z,1.3
2017-01-08T08:01:58.715Z,1.34
2017-01-08T08:02:39.300Z,1.29
2017-01-08T08:03:19.858Z,1.36
2017-01-08T08:04:00.314Z,1.34
2017-01-08T08:04:41.137Z,1.41
2017-01-08T08:05:21.833Z,1.36
2017-01-08T08:06:02.425Z,1.36
2017-01-08T08:06:42.959Z,1.45
2017-01-08T08:07:23.699Z,1.36
2017-01-08T08:08:05.618Z,1.42
2017-01-08T08:08:46.327Z,1.47
2017-01-08T08:09:30.031Z,1.48
2017-01-08T08:10:11.609Z,1.44
2017-01-08T08:10:52.886Z,1.45
2017-01-08T08:11:33.220Z,1.47
2017-01-08T08:12:13.762Z,1.42
2017-01-08T08:12:54.320Z,1.45
2017-01-08T08:13:34.822Z,1.45
2017-01-08T08:14:15.467Z,1.48
2017-01-08T08:14:56.010Z,1.42
2017-01-08T08:15:36.562Z,1.5
2017-01-08T08:16:17.114Z,1.44
2017-01-08T08:16:57.621Z,1.44
2017-01-08T08:17:38.170Z,1.51
2017-01-08T08:18:18.770Z,1.47
2017-01-08T08:18:59.408Z,1.48
2017-01-08T08:19:39.972Z,1.45
2017-01-08T08:20:21.228Z,1.36
2017-01-08T08:21:01.747Z,1.32
2017-01-08T08:21:42.351Z,1.37
2017-01-08T08:22:22.838Z,1.37
2017-01-08T08:23:04.622Z,1.32
2017-01-08T08:23:45.940Z,1.4
2017-01-08T08:24:26.164Z,1.41
2017-01-08T08:25:06.824Z,1.32
2017-01-08T08:25:47.297Z,1.44
2017-01-08T08:26:27.838Z,1.44
2017-01-08T08:27:08.384Z,1.42
2017-01-08T08:27:48.920Z,1.47
2017-01-08T08:28:29.469Z,1.45
2017-01-08T08:29:09.996Z,1.48
2017-01-08T08:29:51.453Z,1.5
2017-01-08T08:30:35.313Z,1.45
2017-01-08T08:31:18.338Z,1.48
2017-01-08T08:31:59.422Z,1.52
2017-01-08T08:32:40.236Z,1.59
2017-01-08T08:33:20.774Z,1.47
2017-01-08T08:34:01.297Z,1.6
2017-01-08T08:34:42.717Z,1.58
2017-01-08T08:35:23.672Z,1.6
2017-01-08T08:36:04.200Z,1.58
2017-01-08T08:36:44.728Z,1.55
2017-01-08T08:37:26.112Z,1.55
2017-01-08T08:38:06.610Z,1.58
2017-01-08T08:38:47.121Z,1.59
2017-01-08T08:39:27.749Z,1.55
2017-01-08T08:40:08.379Z,1.6
2017-01-08T08:40:49.283Z,1.6
2017-01-08T08:41:30.576Z,1.58
2017-01-08T08:42:11.915Z,1.62
2017-01-08T08:42:52.781Z,1.59
2017-01-08T08:43:33.963Z,1.62
2017-01-08T08:44:15.234Z,1.54
2017-01-08T08:44:55.994Z,1.6
2017-01-08T08:45:36.362Z,1.58
2017-01-08T08:46:16.909Z,1.6
2017-01-08T08:46:57.396Z,1.6
2017-01-08T08:47:38.626Z,1.59
2017-01-08T08:48:19.163Z,1.58
2017-01-08T08:48:59.724Z,1.55
2017-01-08T08:49:40.255Z,1.55
2017-01-08T08:50:20.779Z,1.6
2017-01-08T08:51:01.316Z,1.58
2017-01-08T08:51:41.981Z,1.62
2017-01-08T08:52:22.402Z,1.55
2017-01-08T08:53:02.950Z,1.58
2017-01-08T08:53:43.492Z,1.59
2017-01-08T08:54:24.018Z,1.54
2017-01-08T08:55:04.559Z,1.55
2017-01-08T08:55:45.079Z,1.66
2017-01-08T08:56:25.566Z,1.6
2017-01-08T08:57:06.079Z,1.72
2017-01-08T08:57:46.634Z,1.65
2017-01-08T08:58:27.177Z,1.73
2017-01-08T08:59:07.693Z,1.65
2017-01-08T08:59:48.215Z,1.7
2017-01-08T09:00:28.724Z,1.65
2017-01-08T09:01:09.284Z,1.69
2017-01-08T09:01:49.843Z,1.77
2017-01-08T09:02:30.348Z,1.77
2017-01-08T09:03:12.473Z,1.77
2017-01-08T09:03:52.991Z,1.8
2017-01-08T09:04:34.391Z,1.72
2017-01-08T09:05:14.857Z,1.73
2017-01-08T09:05:56.045Z,1.77
2017-01-08T09:06:36.618Z,1.83
2017-01-08T09:07:17.026Z,1.84
2017-01-08T09:07:57.545Z,1.79
2017-01-08T09:08:38.605Z,1.81
2017-01-08T09:09:19.281Z,1.79
2017-01-08T09:09:59.843Z,1.73
2017-01-08T09:10:40.449Z,1.79
2017-01-08T09:11:21.020Z,1.79
2017-01-08T09:12:01.581Z,1.76
2017-01-08T09:12:42.131Z,1.84
2017-01-08T09:13:22.674Z,1.84
2017-01-08T09:14:03.239Z,1.77
2017-01-08T09:14:43.805Z,1.79
2017-01-08T09:15:24.757Z,1.81
2017-01-08T09:16:05.298Z,1.83
2017-01-08T09:16:45.867Z,1.83
2017-01-08T09:17:26.396Z,1.8
2017-01-08T09:18:06.846Z,1.8
2017-01-08T09:18:47.361Z,1.84
2017-01-08T09:19:27.886Z,1.87
2017-01-08T09:20:08.421Z,1.77
2017-01-08T09:20:48.936Z,1.83
2017-01-08T09:21:29.446Z,1.8
2017-01-08T09:22:09.966Z,1.77
2017-01-08T09:22:50.484Z,1.81
2017-01-08T09:23:31.020Z,1.77
2017-01-08T09:24:11.813Z,1.81
2017-01-08T09:24:52.064Z,1.84
2017-01-08T09:25:32.565Z,1.81
2017-01-08T09:26:13.089Z,1.86
2017-01-08T09:26:53.618Z,1.86
2017-01-08T09:27:34.145Z,1.87
2017-01-08T09:28:14.670Z,1.86
2017-01-08T09:28:55.200Z,1.91
2017-01-08T09:29:35.743Z,1.81
2017-01-08T09:30:16.261Z,1.93
2017-01-08T09:30:56.793Z,1.91
2017-01-08T09:31:37.328Z,1.98
2017-01-08T09:32:17.848Z,1.9
2017-01-08T09:32:58.375Z,1.88
2017-01-08T09:33:38.908Z,1.95
2017-01-08T09:34:21.346Z,1.93
2017-01-08T09:35:01.853Z,1.99
2017-01-08T09:35:42.440Z,1.91
2017-01-08T09:36:22.855Z,1.87
2017-01-08T09:37:03.370Z,1.87
2017-01-08T09:37:43.940Z,1.93
2017-01-08T09:38:24.399Z,1.9
2017-01-08T09:39:05.398Z,1.88
2017-01-08T09:39:46.118Z,2
2017-01-08T09:40:26.641Z,1.91
2017-01-08T09:41:07.162Z,1.9
2017-01-08T09:41:47.671Z,1.88
2017-01-08T09:42:28.521Z,1.91
2017-01-08T09:43:09.159Z,1.91
2017-01-08T09:43:50.073Z,2
2017-01-08T09:44:31.007Z,1.99
2017-01-08T09:45:11.924Z,2
2017-01-08T09:45:54.176Z,2.02